createdAt,value
2023-08-28T00:00:26.768Z,98953.70
2023-08-28T00:05:33.337Z,98951.20
2023-08-28T00:10:35.849Z,98944.34
2023-08-28T00:15:38.380Z,98940.58
2023-08-28T00:20:41.910Z,98945.48
2023-08-28T00:25:44.543Z,98939.66
2023-08-28T00:30:47.272Z,98941.58
2023-08-28T00:35:50.825Z,98933.64
2023-08-28T00:40:53.349Z,98920.06
2023-08-28T00:45:56.849Z,98937.80
2023-08-28T00:51:01.849Z,98949.48
2023-08-28T00:56:04.580Z,98952.54
2023-08-28T01:01:07.213Z,98967.13
2023-08-28T01:06:30.146Z,98982.98
2023-08-28T01:11:44.268Z,98979.85
2023-08-28T01:16:51.224Z,98985.94
2023-08-28T01:22:07.340Z,98980.57
2023-08-28T01:27:10.450Z,98989.04
2023-08-28T01:32:13.054Z,99007.02
2023-08-28T01:37:20.490Z,99017.95
2023-08-28T01:42:23.988Z,99032.26
2023-08-28T01:47:26.838Z,99033.97
2023-08-28T01:52:30.091Z,99039.00
2023-08-28T01:57:32.479Z,99044.15
2023-08-28T02:02:35.133Z,99044.94
2023-08-28T02:07:37.695Z,99034.43
2023-08-28T02:12:40.759Z,99046.09
2023-08-28T02:17:43.354Z,99058.34
2023-08-28T02:22:46.019Z,99054.41
2023-08-28T02:27:48.513Z,99045.05
2023-08-28T02:32:51.498Z,99060.77
2023-08-28T02:37:53.975Z,99050.61
2023-08-28T02:42:56.929Z,99064.52
2023-08-28T02:47:59.483Z,99072.16
2023-08-28T02:53:02.288Z,99074.23
2023-08-28T02:58:05.595Z,99067.02
2023-08-28T03:03:09.787Z,99075.96
2023-08-28T03:08:12.361Z,99073.61
2023-08-28T03:13:14.814Z,99072.02
2023-08-28T03:18:17.347Z,99072.56
2023-08-28T03:23:19.789Z,99065.84
2023-08-28T03:28:22.206Z,99076.89
2023-08-28T03:33:25.650Z,99082.67
2023-08-28T03:38:27.963Z,99086.02
2023-08-28T03:43:30.415Z,99100.96
2023-08-28T03:48:32.838Z,99107.56
2023-08-28T03:53:35.859Z,99103.53
2023-08-28T03:58:39.171Z,99110.73
2023-08-28T04:03:42.463Z,99122.76
2023-08-28T04:08:44.984Z,99133.61
2023-08-28T04:13:48.329Z,99139.95
2023-08-28T04:18:51.472Z,99133.13
2023-08-28T04:23:54.717Z,99152.48
2023-08-28T04:28:58.172Z,99150.55
2023-08-28T04:34:02.018Z,99155.33
2023-08-28T04:39:04.541Z,99160.42
2023-08-28T04:44:07.115Z,99171.66
2023-08-28T04:49:11.420Z,99175.02
2023-08-28T04:54:13.903Z,99169.84
2023-08-28T04:59:16.397Z,99170.04
2023-08-28T05:04:18.977Z,99167.90
2023-08-28T05:09:22.226Z,99167.98
2023-08-28T05:14:24.672Z,99162.60
2023-08-28T05:19:27.096Z,99165.89
2023-08-28T05:24:30.135Z,99182.34
2023-08-28T05:29:32.646Z,99190.85
2023-08-28T05:34:35.856Z,99192.20
2023-08-28T05:39:38.266Z,99202.17
2023-08-28T05:44:40.651Z,99210.30
2023-08-28T05:49:43.057Z,99214.47
2023-08-28T05:54:45.567Z,99223.91
2023-08-28T05:59:48.358Z,99227.44
2023-08-28T06:05:22.050Z,99229.50
2023-08-28T06:10:57.577Z,99218.74
2023-08-28T06:16:00.088Z,99229.85
2023-08-28T06:21:02.727Z,99233.21
2023-08-28T06:26:05.175Z,99237.13
2023-08-28T06:31:08.383Z,99251.21
2023-08-28T06:36:11.364Z,99242.59
2023-08-28T06:41:14.472Z,99257.70
2023-08-28T06:46:17.557Z,99260.41
2023-08-28T06:51:21.282Z,99262.98
2023-08-28T06:56:24.418Z,99270.98
2023-08-28T07:01:26.961Z,99272.30
2023-08-28T07:06:30.045Z,99280.49
2023-08-28T07:11:32.647Z,99284.19
2023-08-28T07:16:35.364Z,99287.02
2023-08-28T07:21:38.645Z,99295.77
2023-08-28T07:26:44.216Z,99301.08
2023-08-28T07:31:47.417Z,99304.08
2023-08-28T07:36:50.298Z,99305.45
2023-08-28T07:41:52.810Z,99313.67
2023-08-28T07:46:55.231Z,99315.04
2023-08-28T07:52:01.667Z,99314.81
2023-08-28T07:57:07.768Z,99326.27
2023-08-28T08:02:11.065Z,99318.41
2023-08-28T08:07:13.875Z,99313.85
2023-08-28T08:12:17.096Z,99322.11
2023-08-28T08:17:20.215Z,99309.70
2023-08-28T08:22:22.801Z,99304.02
2023-08-28T08:27:26.586Z,99299.79
2023-08-28T08:32:34.759Z,99289.60
2023-08-28T08:37:37.466Z,99286.63
2023-08-28T08:42:40.163Z,99291.04
2023-08-28T08:47:49.803Z,99288.12
2023-08-28T08:52:52.580Z,99297.02
2023-08-28T08:57:58.833Z,99304.67
2023-08-28T09:03:02.817Z,99296.22
2023-08-28T09:08:11.648Z,99287.77
2023-08-28T09:13:14.125Z,99285.48
2023-08-28T09:18:19.279Z,99261.77
2023-08-28T09:23:21.702Z,99272.73
2023-08-28T09:28:24.566Z,99280.79
2023-08-28T09:33:50.509Z,99299.77
2023-08-28T09:39:07.037Z,99302.27
2023-08-28T09:44:11.294Z,99298.10
2023-08-28T09:49:14.962Z,99299.66
2023-08-28T09:54:18.286Z,99308.66
2023-08-28T09:59:21.458Z,99325.01
2023-08-28T10:04:24.859Z,99333.92
2023-08-28T10:09:30.697Z,99329.60
2023-08-28T10:14:33.676Z,99323.98
2023-08-28T10:20:04.688Z,99327.73
2023-08-28T10:25:09.756Z,99334.48
2023-08-28T10:30:59.983Z,99334.38
2023-08-28T10:36:03.167Z,99345.47
2023-08-28T10:41:07.887Z,99353.61
2023-08-28T10:46:11.294Z,99350.40
2023-08-28T10:51:16.231Z,99353.30
2023-08-28T10:56:18.703Z,99352.44
2023-08-28T11:01:21.282Z,99327.01
2023-08-28T11:06:45.345Z,99326.54
2023-08-28T11:11:48.805Z,99312.06
2023-08-28T11:17:09.415Z,99316.41
2023-08-28T11:22:12.054Z,99315.20
2023-08-28T11:27:35.488Z,99315.80
2023-08-28T11:32:41.814Z,99305.63
2023-08-28T11:37:50.240Z,99304.34
2023-08-28T11:43:06.070Z,99317.19
2023-08-28T11:48:09.090Z,99328.23
2023-08-28T11:53:11.629Z,99330.90
2023-08-28T11:58:14.110Z,99330.08
2023-08-28T12:03:21.429Z,99331.75
2023-08-28T12:08:24.202Z,99333.95
2023-08-28T12:13:26.779Z,99352.73
2023-08-28T12:18:51.754Z,99368.66
2023-08-28T12:23:58.117Z,99376.45
2023-08-28T12:29:01.424Z,99373.23
2023-08-28T12:34:12.290Z,99378.92
2023-08-28T12:39:21.102Z,99380.46
2023-08-28T12:44:25.395Z,99378.10
2023-08-28T12:49:28.674Z,99394.70
2023-08-28T12:54:34.024Z,99404.93
2023-08-28T12:59:36.668Z,99413.43
2023-08-28T13:04:43.525Z,99419.52
2023-08-28T13:09:49.107Z,99411.95
2023-08-28T13:14:51.941Z,99405.25
2023-08-28T13:19:54.383Z,99406.86
2023-08-28T13:24:56.790Z,99401.00
2023-08-28T13:30:00.711Z,99384.75
2023-08-28T13:35:05.242Z,99381.69
2023-08-28T13:40:09.698Z,99374.34
2023-08-28T13:45:13.299Z,99362.27
2023-08-28T13:50:16.077Z,99356.59
2023-08-28T13:55:18.724Z,99352.38
2023-08-28T14:00:23.233Z,99342.02
2023-08-28T14:05:25.840Z,99329.89
2023-08-28T14:10:28.343Z,99311.42
2023-08-28T14:15:31.217Z,99315.73
2023-08-28T14:20:33.771Z,99317.08
2023-08-28T14:25:36.332Z,99316.60
2023-08-28T14:30:39.049Z,99311.81
2023-08-28T14:35:47.847Z,99307.42
2023-08-28T14:40:53.824Z,99294.08
2023-08-28T14:45:57.288Z,99289.91
2023-08-28T14:51:49.521Z,99289.63
2023-08-28T14:56:52.211Z,99280.12
2023-08-28T15:01:54.816Z,99284.23
2023-08-28T15:06:59.273Z,99286.30
2023-08-28T15:12:02.128Z,99281.04
2023-08-28T15:17:05.414Z,99291.90
2023-08-28T15:22:08.046Z,99289.73
2023-08-28T15:27:10.784Z,99284.87
2023-08-28T15:38:42.679Z,99298.19
2023-08-28T15:43:45.299Z,99283.72
2023-08-28T15:48:48.671Z,99295.61
2023-08-28T15:53:51.374Z,99297.81
2023-08-28T15:59:08.459Z,99295.36
2023-08-28T16:04:18.751Z,99294.88
2023-08-28T16:09:22.933Z,99279.80
2023-08-28T16:14:26.325Z,99287.02
2023-08-28T16:19:29.053Z,99277.25
2023-08-28T16:24:31.686Z,99276.29
2023-08-28T16:29:34.670Z,99276.10
2023-08-28T16:34:39.205Z,99274.69
2023-08-28T16:39:41.697Z,99278.99
2023-08-28T16:44:44.370Z,99276.92
2023-08-28T16:49:47.049Z,99276.02
2023-08-28T16:54:49.680Z,99279.23
2023-08-28T16:59:52.172Z,99277.88
2023-08-28T17:04:54.920Z,99285.94
2023-08-28T17:09:57.704Z,99280.01
2023-08-28T17:15:00.599Z,99284.83
2023-08-28T17:20:05.481Z,99274.88
2023-08-28T17:25:08.755Z,99277.14
2023-08-28T17:30:12.200Z,99275.14
2023-08-28T17:35:15.524Z,99277.48
2023-08-28T17:40:20.414Z,99271.67
2023-08-28T17:45:23.149Z,99282.96
2023-08-28T17:50:26.681Z,99289.27
2023-08-28T17:55:30.488Z,99296.23
2023-08-28T18:00:33.572Z,99305.41
2023-08-28T18:05:37.105Z,99304.50
2023-08-28T18:10:43.534Z,99307.09
2023-08-28T18:15:47.837Z,99307.30
2023-08-28T18:20:51.093Z,99317.25
2023-08-28T18:25:53.591Z,99318.71
2023-08-28T18:30:56.848Z,99321.23
2023-08-28T18:36:02.502Z,99328.12
2023-08-28T18:41:05.706Z,99332.15
2023-08-28T18:46:10.097Z,99333.06
2023-08-28T18:51:13.658Z,99321.25
2023-08-28T18:56:21.953Z,99312.71
2023-08-28T19:01:30.316Z,99308.09
2023-08-28T19:06:32.988Z,99305.16
2023-08-28T19:11:39.238Z,99293.56
2023-08-28T19:16:42.804Z,99307.14
2023-08-28T19:21:46.848Z,99294.59
2023-08-28T19:26:53.381Z,99302.42
2023-08-28T19:31:56.015Z,99302.19
2023-08-28T19:37:01.147Z,99298.55
2023-08-28T19:42:04.982Z,99299.77
2023-08-28T19:47:07.565Z,99311.50
2023-08-28T19:52:14.804Z,99310.65
2023-08-28T19:57:22.388Z,99312.15
2023-08-28T20:02:25.072Z,99310.69
2023-08-28T20:07:28.652Z,99303.13
2023-08-28T20:12:31.228Z,99306.65
2023-08-28T20:17:34.619Z,99303.92
2023-08-28T20:22:38.778Z,99302.46
2023-08-28T20:27:44.554Z,99290.08
2023-08-28T20:32:47.810Z,99293.86
2023-08-28T20:37:50.537Z,99289.73
2023-08-28T20:42:53.062Z,99291.48
2023-08-28T20:47:55.706Z,99294.77
2023-08-28T20:52:58.851Z,99291.53
2023-08-28T20:58:01.552Z,99299.77
2023-08-28T21:03:04.377Z,99287.73
2023-08-28T21:08:07.354Z,99282.91
2023-08-28T21:13:10.050Z,99277.30
2023-08-28T21:18:12.714Z,99289.80
2023-08-28T21:23:15.371Z,99281.04
2023-08-28T21:28:18.448Z,99284.98
2023-08-28T21:33:20.938Z,99284.90
2023-08-28T21:38:23.362Z,99278.80
2023-08-28T21:43:28.033Z,99264.90
2023-08-28T21:48:34.547Z,99255.48
2023-08-28T21:53:37.375Z,99248.77
2023-08-28T21:58:39.921Z,99244.66
2023-08-28T22:03:43.624Z,99248.02
2023-08-28T22:08:46.210Z,99238.48
2023-08-28T22:13:48.765Z,99236.92
2023-08-28T22:18:51.314Z,99230.48
2023-08-28T22:23:54.020Z,99241.85
2023-08-28T22:28:57.425Z,99244.61
2023-08-28T22:34:00.308Z,99247.70
2023-08-28T22:39:03.851Z,99246.81
2023-08-28T22:44:06.838Z,99233.96
2023-08-28T22:49:09.363Z,99225.83
2023-08-28T22:54:12.747Z,99221.73
2023-08-28T22:59:15.775Z,99227.86
2023-08-28T23:04:19.243Z,99224.31
2023-08-28T23:09:25.131Z,99226.46
2023-08-28T23:14:28.861Z,99222.25
2023-08-28T23:19:32.083Z,99220.98
2023-08-28T23:24:34.926Z,99220.44
2023-08-28T23:29:38.099Z,99213.48
2023-08-28T23:34:41.229Z,99223.75
2023-08-28T23:39:43.750Z,99216.88
2023-08-28T23:44:46.273Z,99217.55
2023-08-28T23:49:49.376Z,99217.16
2023-08-28T23:54:52.663Z,99217.57
2023-08-28T23:59:55.848Z,99212.68
